Time;durP1;ratioP1;P1;durP2;ratioP2;P2;SDS_P1;SDS_P2;PMS_P1;PMS_P2;Temp;Humidity;BMP_temperature;BMP_pressure;BME280_temperature;BME280_humidity;BME280_pressure;Samples;Min_cycle;Max_cycle;Signal;HPM_P1;HPM_P2
2022/05/08 00:00:41;;;;;;;7.13;4.03;;;;;;;13.71;99.70;102520.84;6428418;23;20338;-71
2022/05/08 00:03:13;;;;;;;5.78;3.70;;;;;;;13.74;100.00;102520.63;6402378;23;20015;-73
2022/05/08 00:05:44;;;;;;;9.02;4.25;;;;;;;13.77;100.00;102520.44;6399873;23;20005;-73
2022/05/08 00:08:15;;;;;;;7.13;4.13;;;;;;;13.73;99.57;102525.06;6401718;23;20012;-74
2022/05/08 00:10:47;;;;;;;6.25;4.10;;;;;;;13.68;98.76;102516.66;6428129;23;20016;-72
2022/05/08 00:13:18;;;;;;;7.90;4.18;;;;;;;13.62;100.00;102509.19;6402271;23;20036;-72
2022/05/08 00:15:49;;;;;;;6.75;4.63;;;;;;;13.66;100.00;102508.03;6401119;23;20005;-72
2022/05/08 00:18:23;;;;;;;6.18;4.22;;;;;;;13.67;100.00;102511.50;6428331;23;20004;-72
2022/05/08 00:20:54;;;;;;;7.53;4.47;;;;;;;13.61;100.00;102507.50;6427141;23;20025;-73
2022/05/08 00:23:26;;;;;;;8.70;4.32;;;;;;;13.65;100.00;102508.97;6427489;23;20385;-73
2022/05/08 00:25:57;;;;;;;8.25;4.93;;;;;;;13.65;100.00;102516.88;6428928;23;20375;-73
2022/05/08 00:28:28;;;;;;;7.68;5.30;;;;;;;13.64;100.00;102512.56;6427596;23;20004;-73
2022/05/08 00:31:00;;;;;;;9.05;5.30;;;;;;;13.60;100.00;102508.47;6428732;23;20009;-73
2022/05/08 00:33:31;;;;;;;8.13;4.65;;;;;;;13.55;100.00;102507.94;6402057;23;20067;-73
2022/05/08 00:36:04;;;;;;;7.28;4.28;;;;;;;13.55;100.00;102508.78;6402624;23;20392;-73
2022/05/08 00:38:35;;;;;;;8.85;5.32;;;;;;;13.54;100.00;102507.09;6427798;23;20208;-74
2022/05/08 00:41:08;;;;;;;7.80;5.18;;;;;;;13.55;100.00;102510.56;6428965;23;20455;-73
2022/05/08 00:43:40;;;;;;;13.02;5.28;;;;;;;13.62;100.00;102501.28;6402662;23;20051;-73
2022/05/08 00:46:13;;;;;;;11.83;5.07;;;;;;;13.68;100.00;102507.94;6428147;23;20408;-71
2022/05/08 00:48:45;;;;;;;11.07;5.00;;;;;;;13.59;100.00;102515.50;6402247;23;20005;-72
2022/05/08 00:51:17;;;;;;;8.65;5.07;;;;;;;13.50;100.00;102517.97;6429148;23;20023;-72
2022/05/08 00:53:51;;;;;;;9.70;5.25;;;;;;;13.52;100.00;102521.31;6402060;23;20120;-72
2022/05/08 00:56:22;;;;;;;9.07;5.30;;;;;;;13.44;100.00;102519.22;6400466;23;20013;-72
2022/05/08 00:58:54;;;;;;;10.18;5.20;;;;;;;13.45;100.00;102520.94;6427507;23;20113;-73
2022/05/08 01:01:25;;;;;;;7.82;5.93;;;;;;;13.39;100.00;102522.19;6402651;23;20013;-74
2022/05/08 01:03:56;;;;;;;7.63;5.30;;;;;;;13.40;100.00;102528.28;6428742;23;20254;-74
2022/05/08 01:06:30;;;;;;;7.80;5.65;;;;;;;13.39;100.00;102526.63;6427623;23;20004;-71
2022/05/08 01:09:02;;;;;;;9.63;6.03;;;;;;;13.31;100.00;102527.16;6427717;23;20045;-73
2022/05/08 01:11:34;;;;;;;11.35;6.00;;;;;;;13.25;100.00;102519.66;6428399;23;20027;-73
2022/05/08 01:14:05;;;;;;;9.20;6.10;;;;;;;13.30;100.00;102530.75;6427308;23;20009;-71
2022/05/08 01:16:37;;;;;;;10.50;6.10;;;;;;;13.27;100.00;102522.22;6427523;23;20084;-73
2022/05/08 01:19:08;;;;;;;9.20;6.07;;;;;;;13.24;100.00;102527.69;6428332;23;20000;-74
2022/05/08 01:21:41;;;;;;;10.00;5.80;;;;;;;13.25;100.00;102529.34;6401243;23;20064;-73
2022/05/08 01:24:15;;;;;;;9.77;6.80;;;;;;;13.19;100.00;102525.34;6428520;23;20012;-72
2022/05/08 01:26:47;;;;;;;11.90;6.68;;;;;;;13.11;100.00;102527.66;6401023;23;20009;-73
2022/05/08 01:29:19;;;;;;;8.45;6.30;;;;;;;13.10;100.00;102525.97;6428598;23;20432;-72
2022/05/08 01:31:50;;;;;;;11.88;6.85;;;;;;;13.07;100.00;102534.94;6427973;23;20477;-73
2022/05/08 01:34:22;;;;;;;9.07;6.70;;;;;;;13.05;100.00;102534.16;6427619;23;20075;-72
2022/05/08 01:36:53;;;;;;;10.07;7.13;;;;;;;13.03;100.00;102537.84;6428034;23;20012;-73
2022/05/08 01:39:24;;;;;;;11.05;6.80;;;;;;;12.91;100.00;102529.84;6428042;23;20005;-72
2022/05/08 01:41:55;;;;;;;8.95;6.90;;;;;;;12.99;100.00;102545.09;6428537;23;20016;-73
2022/05/08 01:44:27;;;;;;;13.40;7.18;;;;;;;12.94;100.00;102538.47;6400632;23;20167;-72
2022/05/08 01:49:48;;;;;;;12.95;7.70;;;;;;;12.87;100.00;102541.50;6427363;23;20040;-72
2022/05/08 01:52:19;;;;;;;10.60;7.55;;;;;;;12.77;100.00;102531.75;6427823;23;20040;-73
2022/05/08 01:54:50;;;;;;;10.57;7.10;;;;;;;12.80;100.00;102548.13;6426859;23;20005;-72
2022/05/08 01:57:22;;;;;;;9.63;6.90;;;;;;;12.78;100.00;102542.16;6400994;23;20100;-74
2022/05/08 01:59:53;;;;;;;12.70;8.35;;;;;;;12.76;100.00;102553.69;6428156;23;20016;-73
2022/05/08 02:02:25;;;;;;;9.60;7.15;;;;;;;12.72;100.00;102546.97;6426337;23;20009;-73
2022/05/08 02:04:57;;;;;;;10.68;7.47;;;;;;;12.69;100.00;102545.41;6427226;23;20005;-72
2022/05/08 02:07:28;;;;;;;10.32;7.50;;;;;;;12.70;100.00;102543.63;6426921;23;20040;-73
2022/05/08 02:10:01;;;;;;;13.43;7.53;;;;;;;12.75;100.00;102552.03;6429912;23;19997;-73
2022/05/08 02:12:32;;;;;;;;;;;;;;;13.16;100.00;102546.59;6430470;23;20075;-72
2022/05/08 02:15:05;;;;;;;11.20;8.00;;;;;;;12.68;100.00;102556.84;6429233;23;19911;-72
2022/05/08 02:17:38;;;;;;;11.88;8.45;;;;;;;12.62;100.00;102562.53;6428716;23;20005;-73
2022/05/08 02:20:11;;;;;;;10.13;7.72;;;;;;;12.61;100.00;102559.06;6428798;23;20001;-71
2022/05/08 02:22:42;;;;;;;12.05;8.45;;;;;;;12.61;100.00;102563.44;6429424;23;20351;-72
2022/05/08 02:25:13;;;;;;;12.13;8.07;;;;;;;12.57;100.00;102565.44;6429539;23;20013;-73
2022/05/08 02:27:49;;;;;;;13.15;9.45;;;;;;;12.54;100.00;102563.03;6429205;23;20020;-73
2022/05/08 02:30:22;;;;;;;14.63;9.48;;;;;;;12.47;100.00;102563.53;6429574;23;20012;-73
2022/05/08 02:32:54;;;;;;;12.70;9.05;;;;;;;12.50;100.00;102563.31;6429776;23;20013;-73
2022/05/08 02:35:25;;;;;;;14.15;9.25;;;;;;;12.42;100.00;102569.06;6427697;23;20019;-73
2022/05/08 02:37:57;;;;;;;13.02;9.23;;;;;;;12.37;100.00;102566.75;6429708;23;20009;-70
2022/05/08 02:40:28;;;;;;;11.98;8.38;;;;;;;12.38;100.00;102565.81;6429562;23;20335;-72
2022/05/08 02:42:59;;;;;;;11.05;8.68;;;;;;;12.30;100.00;102560.19;6428626;23;20009;-73
2022/05/08 02:45:31;;;;;;;12.68;8.75;;;;;;;12.27;100.00;102568.28;6429122;23;20004;-72
2022/05/08 02:48:02;;;;;;;12.23;8.85;;;;;;;12.26;100.00;102571.84;6429367;23;20008;-70
2022/05/08 02:50:33;;;;;;;14.80;8.80;;;;;;;12.23;100.00;102568.59;6427437;23;20380;-72
2022/05/08 02:53:05;;;;;;;13.95;9.07;;;;;;;12.21;100.00;102568.69;6429411;23;20012;-73
2022/05/08 02:58:32;;;;;;;16.05;9.25;;;;;;;12.18;100.00;102568.88;6429316;23;20012;-73
2022/05/08 03:01:07;;;;;;;15.98;9.30;;;;;;;12.12;100.00;102566.63;6428566;23;20008;-72
2022/05/08 03:03:38;;;;;;;13.48;9.55;;;;;;;12.11;100.00;102571.06;6428175;23;20005;-71
2022/05/08 03:06:09;;;;;;;12.55;9.30;;;;;;;12.10;100.00;102568.53;6428473;23;20012;-72
2022/05/08 03:08:41;;;;;;;14.77;9.25;;;;;;;12.11;100.00;102567.59;6402162;23;20005;-72
2022/05/08 03:11:28;;;;;;;10.23;8.32;;;;;;;12.06;100.00;102564.41;6428193;23;20135;-72
2022/05/08 03:14:01;;;;;;;14.95;9.63;;;;;;;12.07;100.00;102566.94;6427836;23;20011;-71
2022/05/08 03:16:33;;;;;;;14.40;9.00;;;;;;;12.02;100.00;102569.03;6428643;23;20337;-73
2022/05/08 03:19:04;;;;;;;13.82;8.57;;;;;;;12.08;100.00;102562.50;6427912;23;20005;-70
2022/05/08 03:21:37;;;;;;;14.68;10.05;;;;;;;12.02;100.00;102573.44;6429078;23;20008;-73
2022/05/08 03:24:09;;;;;;;;;;;;;;;12.50;100.00;102573.81;6429360;23;20016;-72
2022/05/08 03:26:40;;;;;;;13.65;8.43;;;;;;;12.02;100.00;102562.94;6428657;23;19908;-72
2022/05/08 03:29:11;;;;;;;16.10;8.82;;;;;;;11.89;100.00;102557.59;6428658;23;20452;-72
2022/05/08 03:31:43;;;;;;;9.70;8.27;;;;;;;11.98;100.00;102569.31;6428900;23;20080;-70
2022/05/08 03:34:15;;;;;;;12.32;8.35;;;;;;;11.90;100.00;102559.28;6427739;23;20428;-73
2022/05/08 03:36:46;;;;;;;14.02;8.70;;;;;;;11.89;100.00;102568.97;6401352;23;20013;-73
2022/05/08 03:39:17;;;;;;;13.35;8.32;;;;;;;11.87;100.00;102564.72;6426896;23;20001;-72
2022/05/08 03:41:49;;;;;;;14.18;7.88;;;;;;;11.87;100.00;102570.00;6428168;23;20227;-72
2022/05/08 03:44:20;;;;;;;16.85;8.90;;;;;;;11.83;100.00;102569.34;6428988;23;20012;-72
2022/05/08 03:46:51;;;;;;;17.45;8.00;;;;;;;11.81;100.00;102568.53;6401936;23;20095;-73
2022/05/08 03:49:22;;;;;;;15.55;8.07;;;;;;;11.78;100.00;102571.38;6428168;23;20009;-73
2022/05/08 03:51:54;;;;;;;14.80;7.40;;;;;;;11.73;98.21;102573.44;6427038;23;20460;-73
2022/05/08 03:54:25;;;;;;;15.10;6.40;;;;;;;11.69;98.16;102567.53;6428565;23;20008;-73
2022/05/08 03:56:56;;;;;;;15.80;6.97;;;;;;;11.68;95.67;102573.72;6428972;23;20009;-71
2022/05/08 03:59:27;;;;;;;15.07;6.90;;;;;;;11.64;95.94;102576.63;6428708;23;20005;-73
2022/05/08 04:01:59;;;;;;;17.45;6.50;;;;;;;11.63;95.02;102577.56;6399097;23;20001;-73
2022/05/08 04:04:30;;;;;;;15.77;6.88;;;;;;;11.63;93.62;102577.56;6427893;23;20036;-73
2022/05/08 04:07:02;;;;;;;14.85;6.30;;;;;;;11.63;95.19;102575.81;6401330;23;20016;-72
2022/05/08 04:09:33;;;;;;;17.23;6.95;;;;;;;11.58;92.78;102579.63;6428151;23;20052;-72
2022/05/08 04:12:05;;;;;;;14.80;5.90;;;;;;;11.63;94.31;102585.44;6427178;23;20005;-70
2022/05/08 04:14:36;;;;;;;17.67;6.65;;;;;;;11.54;93.70;102584.22;6427970;23;20055;-72
2022/05/08 04:17:07;;;;;;;13.65;5.75;;;;;;;11.56;93.94;102590.25;6428278;23;20008;-72
2022/05/08 04:19:39;;;;;;;16.60;6.10;;;;;;;11.50;93.32;102592.38;6427573;23;20005;-72
2022/05/08 04:25:00;;;;;;;16.23;5.82;;;;;;;11.38;91.88;102589.56;6427749;23;20012;-72
2022/05/08 04:27:31;;;;;;;16.55;5.57;;;;;;;11.41;92.88;102589.38;6428866;23;20001;-72
2022/05/08 04:30:03;;;;;;;19.38;6.07;;;;;;;11.40;93.13;102592.09;6427757;23;20080;-70
2022/05/08 04:32:35;;;;;;;17.42;5.47;;;;;;;11.36;93.07;102596.66;6400802;23;20505;-72
2022/05/08 04:35:07;;;;;;;16.65;6.38;;;;;;;11.29;92.11;102599.75;6428268;23;20008;-72
2022/05/08 04:37:38;;;;;;;22.73;6.03;;;;;;;11.33;94.75;102596.03;6429686;23;20012;-69
2022/05/08 04:40:09;;;;;;;18.48;5.55;;;;;;;11.28;93.01;102598.91;6429305;23;20001;-72
2022/05/08 04:42:40;;;;;;;19.35;5.57;;;;;;;11.26;93.30;102592.94;6427269;23;20635;-72
2022/05/08 04:45:12;;;;;;;21.90;5.72;;;;;;;11.24;93.40;102586.06;6427632;23;20055;-72
2022/05/08 04:47:43;;;;;;;17.80;5.10;;;;;;;11.21;92.53;102597.59;6427569;23;20012;-72
2022/05/08 04:50:14;;;;;;;23.00;5.28;;;;;;;11.23;93.95;102610.63;6427320;23;20020;-72
2022/05/08 04:52:46;;;;;;;15.90;5.15;;;;;;;11.24;94.40;102607.91;6427608;23;20011;-72
2022/05/08 04:55:17;;;;;;;19.75;5.53;;;;;;;11.27;95.27;102606.88;6428034;23;20009;-72
2022/05/08 04:57:48;;;;;;;16.80;5.13;;;;;;;11.19;92.96;102612.59;6428518;23;20012;-72
2022/05/08 05:00:19;;;;;;;17.75;5.13;;;;;;;11.15;92.95;102614.56;6427629;23;20004;-71
2022/05/08 05:02:51;;;;;;;19.52;5.45;;;;;;;11.12;94.26;102614.72;6425678;23;20499;-72
2022/05/08 05:05:22;;;;;;;18.55;4.82;;;;;;;11.14;94.21;102622.53;6427608;23;20017;-70
2022/05/08 05:07:54;;;;;;;19.38;5.57;;;;;;;11.13;93.95;102624.28;6427769;23;20072;-71
2022/05/08 05:10:25;;;;;;;20.20;5.57;;;;;;;11.15;94.71;102632.06;6400815;23;20009;-73
2022/05/08 05:12:56;;;;;;;18.60;5.32;;;;;;;11.06;93.88;102625.59;6425964;23;20009;-72
2022/05/08 05:15:29;;;;;;;14.98;4.95;;;;;;;11.06;93.93;102632.59;6426144;23;20092;-69
2022/05/08 05:18:01;;;;;;;18.10;5.90;;;;;;;11.10;96.15;102639.34;6425301;23;20009;-71
2022/05/08 05:20:33;;;;;;;18.08;5.80;;;;;;;11.08;95.23;102630.75;6427047;23;20377;-71
2022/05/08 05:23:04;;;;;;;20.17;5.88;;;;;;;11.07;92.85;102639.56;6427205;23;20035;-71
2022/05/08 05:25:36;;;;;;;24.10;6.40;;;;;;;11.12;95.02;102638.34;6426437;23;20032;-72
2022/05/08 05:28:07;;;;;;;22.13;6.03;;;;;;;11.13;96.11;102632.16;6426650;23;20004;-71
2022/05/08 05:30:38;;;;;;;21.05;6.18;;;;;;;11.14;96.49;102639.09;6426831;23;20072;-72
2022/05/08 05:33:15;;;;;;;22.13;5.57;;;;;;;11.15;93.35;102647.81;6424140;23;20005;-70
2022/05/08 05:35:46;;;;;;;23.40;6.00;;;;;;;11.16;93.48;102657.38;6424414;23;20009;-71
2022/05/08 05:38:18;;;;;;;20.80;5.03;;;;;;;11.18;94.01;102650.25;6426942;23;20059;-73
2022/05/08 05:40:49;;;;;;;17.23;5.47;;;;;;;11.17;94.99;102643.31;6427663;23;20009;-70
2022/05/08 05:43:21;;;;;;;20.27;5.22;;;;;;;11.27;92.40;102664.63;6424886;23;20032;-72
2022/05/08 05:48:42;;;;;;;16.02;4.38;;;;;;;11.33;91.52;102667.72;6425948;23;20017;-72
2022/05/08 05:51:13;;;;;;;17.92;4.90;;;;;;;11.38;91.18;102670.91;6427068;23;20013;-70
2022/05/08 05:53:44;;;;;;;17.58;5.85;;;;;;;11.47;91.50;102679.19;6428080;23;20079;-72
2022/05/08 05:56:16;;;;;;;19.05;5.20;;;;;;;11.42;92.12;102685.53;6428927;23;20379;-72
2022/05/08 05:58:47;;;;;;;17.08;4.53;;;;;;;11.51;92.85;102684.16;6429818;23;20424;-70
2022/05/08 06:01:18;;;;;;;18.63;5.28;;;;;;;11.47;90.06;102685.25;6428698;23;20009;-69
2022/05/08 06:03:49;;;;;;;18.35;5.20;;;;;;;11.51;89.00;102681.53;6429328;23;20004;-68
2022/05/08 06:06:21;;;;;;;15.40;4.68;;;;;;;11.48;87.95;102694.84;6402900;23;20088;-71
2022/05/08 06:08:52;;;;;;;21.20;5.22;;;;;;;11.54;87.05;102693.63;6429369;23;20013;-71
2022/05/08 06:11:23;;;;;;;21.92;5.20;;;;;;;11.55;86.35;102693.53;6429200;23;20083;-71
2022/05/08 06:13:55;;;;;;;23.58;5.38;;;;;;;11.64;87.39;102694.78;6429301;23;20084;-69
2022/05/08 06:16:26;;;;;;;19.60;4.63;;;;;;;11.65;85.02;102699.94;6429411;23;20062;-69
2022/05/08 06:18:58;;;;;;;16.88;5.68;;;;;;;11.74;86.31;102709.03;6429168;23;20360;-71
2022/05/08 06:21:29;;;;;;;17.10;4.93;;;;;;;11.85;87.59;102708.41;6429132;23;20008;-70
2022/05/08 06:24:01;;;;;;;15.40;4.70;;;;;;;11.76;83.32;102704.53;6428046;23;20003;-68
2022/05/08 06:26:32;;;;;;;19.70;5.00;;;;;;;11.78;83.75;102707.94;6429154;23;20598;-71
2022/05/08 06:29:04;;;;;;;18.67;4.50;;;;;;;11.79;84.13;102704.34;6400844;23;20409;-68
2022/05/08 06:31:35;;;;;;;19.70;4.68;;;;;;;11.83;82.04;102705.03;6427207;23;20004;-68
2022/05/08 06:34:08;;;;;;;19.73;4.60;;;;;;;11.83;81.51;102703.28;6427560;23;20009;-71
2022/05/08 06:36:39;;;;;;;19.85;4.55;;;;;;;11.78;80.34;102707.94;6427267;23;20035;-71
2022/05/08 06:39:10;;;;;;;20.38;4.80;;;;;;;11.83;81.37;102715.53;6426886;23;19997;-69
2022/05/08 06:41:42;;;;;;;11.90;3.80;;;;;;;11.93;82.64;102714.91;6427354;23;20009;-70
2022/05/08 06:44:13;;;;;;;19.95;5.32;;;;;;;11.99;80.01;102720.72;6428777;23;20004;-70
2022/05/08 06:46:44;;;;;;;15.02;4.15;;;;;;;12.00;78.84;102720.63;6429193;23;20088;-70
2022/05/08 06:49:16;;;;;;;16.88;4.90;;;;;;;11.96;77.93;102720.91;6429286;23;20001;-70
2022/05/08 06:51:48;;;;;;;15.93;3.70;;;;;;;12.06;78.30;102719.41;6428941;23;20023;-72
2022/05/08 06:54:19;;;;;;;16.67;4.53;;;;;;;12.03;77.89;102722.22;6427893;23;20069;-71
2022/05/08 06:56:52;;;;;;;18.52;4.75;;;;;;;12.04;79.42;102719.50;6427531;23;20754;-71
2022/05/08 07:02:13;;;;;;;16.02;3.90;;;;;;;12.04;75.59;102721.28;6429333;23;20020;-70
2022/05/08 07:04:44;;;;;;;14.55;3.95;;;;;;;12.10;77.99;102723.53;6427045;23;20012;-68
2022/05/08 07:07:16;;;;;;;13.63;4.35;;;;;;;12.20;79.67;102724.69;6427904;23;20037;-72
2022/05/08 07:09:47;;;;;;;15.02;4.00;;;;;;;12.17;77.33;102730.94;6401751;23;20032;-71
2022/05/08 07:12:19;;;;;;;15.07;4.47;;;;;;;12.09;74.86;102727.13;6426961;23;20076;-72
2022/05/08 07:14:50;;;;;;;16.50;4.25;;;;;;;12.17;75.92;102733.59;6427718;23;20009;-72
2022/05/08 07:17:23;;;;;;;20.60;5.05;;;;;;;12.15;74.83;102742.47;6427554;23;20005;-70
2022/05/08 07:19:55;;;;;;;;;;;;;;;12.65;73.77;102734.09;6428424;23;20001;-72
2022/05/08 07:22:27;;;;;;;15.00;4.45;;;;;;;12.26;74.32;102737.41;6428959;23;20332;-71
2022/05/08 07:24:58;;;;;;;14.80;4.13;;;;;;;12.22;75.06;102733.28;6427743;23;20005;-70
2022/05/08 07:27:31;;;;;;;17.95;4.53;;;;;;;12.32;74.54;102736.22;6428520;23;20092;-72
2022/05/08 07:30:04;;;;;;;13.07;3.97;;;;;;;12.53;74.10;102737.47;6428142;23;20013;-72
2022/05/08 07:32:35;;;;;;;23.77;4.63;;;;;;;12.72;73.42;102737.16;6402063;23;20009;-72
2022/05/08 07:37:57;;;;;;;15.50;4.28;;;;;;;13.15;72.75;102734.41;6428090;23;20013;-73
2022/05/08 07:40:29;;;;;;;17.30;4.43;;;;;;;13.21;69.77;102733.97;6428434;23;20357;-72
2022/05/08 07:43:01;;;;;;;19.98;5.03;;;;;;;13.36;71.16;102743.53;6428519;23;20427;-71
2022/05/08 07:45:32;;;;;;;18.15;5.57;;;;;;;13.51;72.11;102746.09;6427751;23;20424;-72
2022/05/08 07:48:04;;;;;;;20.33;4.90;;;;;;;13.63;70.67;102745.25;6428568;23;20017;-73
2022/05/08 07:50:36;;;;;;;15.38;4.68;;;;;;;13.67;68.52;102746.75;6427886;23;20139;-71
2022/05/08 07:53:07;;;;;;;17.60;5.55;;;;;;;13.73;67.46;102750.75;6428317;23;20424;-73
2022/05/08 07:55:39;;;;;;;14.27;4.35;;;;;;;13.93;68.87;102747.59;6428161;23;20005;-72
2022/05/08 07:58:11;;;;;;;14.68;4.07;;;;;;;13.92;67.90;102750.34;6400416;23;20038;-71
2022/05/08 08:00:43;;;;;;;17.52;4.47;;;;;;;14.06;68.48;102747.63;6428099;23;20013;-73
2022/05/08 08:03:14;;;;;;;17.02;4.60;;;;;;;14.25;68.44;102760.38;6426920;23;20622;-73
2022/05/08 08:05:45;;;;;;;23.02;5.00;;;;;;;14.26;66.21;102762.03;6427341;23;20579;-72
2022/05/08 08:08:17;;;;;;;16.00;4.35;;;;;;;14.24;64.13;102751.59;6427552;23;20851;-73
2022/05/08 08:10:55;;;;;;;15.73;4.37;;;;;;;14.42;64.99;102761.81;6428200;23;20502;-73
2022/05/08 08:13:29;;;;;;;21.05;4.95;;;;;;;14.48;65.92;102764.84;6428100;23;20348;-72
2022/05/08 08:16:01;;;;;;;19.13;5.28;;;;;;;14.65;66.01;102755.75;6427245;23;20017;-72
2022/05/08 08:18:33;;;;;;;17.83;4.13;;;;;;;14.60;63.51;102752.63;6427723;23;20067;-73
2022/05/08 08:21:04;;;;;;;15.45;4.55;;;;;;;14.81;64.43;102751.09;6427904;23;20005;-72
2022/05/08 08:23:36;;;;;;;14.57;3.95;;;;;;;14.95;63.67;102752.69;6427150;23;20009;-72
2022/05/08 08:26:09;;;;;;;14.82;4.35;;;;;;;15.05;63.28;102755.53;6426927;23;20036;-73
2022/05/08 08:28:40;;;;;;;16.55;4.82;;;;;;;15.17;64.25;102764.34;6427520;23;20012;-73
2022/05/08 08:31:12;;;;;;;15.95;4.55;;;;;;;15.12;61.14;102769.13;6427912;23;20005;-73
2022/05/08 08:33:44;;;;;;;15.25;4.82;;;;;;;15.23;61.27;102756.81;6427406;23;20005;-73
2022/05/08 08:36:16;;;;;;;15.77;4.72;;;;;;;15.41;62.88;102751.09;6427346;23;20092;-73
2022/05/08 08:38:47;;;;;;;16.85;3.90;;;;;;;15.38;60.16;102759.25;6427906;23;20040;-73
2022/05/08 08:41:27;;;;;;;17.17;4.28;;;;;;;15.57;61.18;102756.94;6427238;23;20004;-72
2022/05/08 08:49:54;;;;;;;14.85;4.85;;;;;;;15.96;56.63;102760.16;6427199;23;20816;-72
2022/05/08 08:52:26;;;;;;;17.17;3.80;;;;;;;16.07;55.65;102752.22;6427229;23;20019;-73
2022/05/08 08:54:58;;;;;;;17.07;4.70;;;;;;;16.09;56.54;102755.59;6426725;23;20084;-71
2022/05/08 08:57:30;;;;;;;16.88;5.18;;;;;;;16.13;56.48;102757.03;6427724;23;20015;-74
2022/05/08 09:00:02;;;;;;;13.38;3.92;;;;;;;16.18;54.02;102760.16;6400835;23;20005;-73
2022/05/08 09:02:34;;;;;;;12.70;3.90;;;;;;;16.33;52.28;102758.13;6427732;23;20058;-72
2022/05/08 09:05:08;;;;;;;11.75;4.03;;;;;;;16.42;50.93;102757.38;6427853;23;20243;-72
2022/05/08 09:07:47;;;;;;;13.32;3.20;;;;;;;16.66;51.95;102751.09;6426695;23;20028;-72
2022/05/08 09:10:20;;;;;;;12.38;3.78;;;;;;;16.46;51.45;102752.69;6427504;23;19996;-72
2022/05/08 09:12:51;;;;;;;11.30;3.35;;;;;;;16.70;52.27;102760.47;6427518;23;20013;-72
2022/05/08 09:15:28;;;;;;;16.47;4.13;;;;;;;16.91;52.03;102757.94;6427012;23;20476;-73
2022/05/08 09:18:03;;;;;;;12.98;4.00;;;;;;;16.85;49.94;102759.25;6399792;23;20009;-71
2022/05/08 09:20:43;;;;;;;11.38;3.55;;;;;;;17.27;54.78;102748.75;6426357;23;20005;-75
2022/05/08 09:23:19;;;;;;;13.45;3.88;;;;;;;17.30;54.21;102753.78;6426512;23;20005;-75
2022/05/08 09:25:55;;;;;;;9.43;3.25;;;;;;;17.36;50.69;102752.47;6427706;23;20005;-75
2022/05/08 09:28:32;;;;;;;16.02;4.75;;;;;;;17.43;51.47;102745.69;6428374;23;20011;-74
2022/05/08 09:31:07;;;;;;;10.07;3.63;;;;;;;17.62;52.73;102744.97;6427769;23;20064;-75
2022/05/08 09:33:46;;;;;;;11.70;3.50;;;;;;;17.74;50.02;102751.88;6428095;23;20013;-75
2022/05/08 09:36:21;;;;;;;11.80;3.67;;;;;;;17.76;48.56;102752.59;6428196;23;20016;-74
2022/05/08 09:39:03;;;;;;;9.82;3.90;;;;;;;18.05;48.39;102746.63;6426827;23;20009;-71
2022/05/08 09:41:37;;;;;;;14.25;4.28;;;;;;;17.95;49.57;102749.22;6426484;23;20009;-72
2022/05/08 09:44:18;;;;;;;11.82;3.60;;;;;;;18.10;49.57;102742.59;6427793;23;20064;-74
2022/05/08 09:46:49;;;;;;;17.20;4.03;;;;;;;17.82;47.25;102738.00;6427600;23;20142;-72
2022/05/08 09:49:23;;;;;;;10.48;3.70;;;;;;;18.00;49.16;102744.38;6425697;23;20088;-72
2022/05/08 09:51:56;;;;;;;10.18;3.30;;;;;;;18.12;48.76;102745.97;6422406;23;20360;-72
2022/05/08 09:54:28;;;;;;;11.57;3.50;;;;;;;18.02;44.28;102739.75;6424892;23;20005;-72
2022/05/08 09:57:01;;;;;;;9.85;3.65;;;;;;;18.15;46.04;102748.34;6425648;23;20008;-73
2022/05/08 09:59:33;;;;;;;;;;;;;;;18.91;48.30;102748.72;6425019;23;20015;-72
2022/05/08 10:02:05;;;;;;;10.60;3.40;;;;;;;18.36;45.76;102748.28;6426442;23;20308;-74
2022/05/08 10:04:37;;;;;;;14.30;3.85;;;;;;;18.40;46.59;102744.38;6426501;23;20039;-73
2022/05/08 10:07:08;;;;;;;10.63;3.53;;;;;;;18.46;45.70;102735.88;6426168;23;20013;-73
2022/05/08 10:15:41;;;;;;;10.80;3.50;;;;;;;18.59;45.13;102732.13;6427761;23;20021;-73
2022/05/08 10:18:22;;;;;;;11.02;3.47;;;;;;;18.57;46.27;102719.00;6426981;23;20444;-73
2022/05/08 10:21:02;;;;;;;12.00;3.60;;;;;;;18.66;45.70;102731.44;6427528;23;20001;-73
2022/05/08 10:23:38;;;;;;;9.25;3.35;;;;;;;18.68;43.04;102726.03;6423201;23;20009;-73
2022/05/08 10:26:18;;;;;;;14.20;4.05;;;;;;;18.82;45.28;102724.78;6425245;23;20012;-73
2022/05/08 10:29:13;;;;;;;10.48;3.60;;;;;;;19.03;45.36;102725.50;6427458;23;20087;-74
2022/05/08 10:31:50;;;;;;;11.00;3.75;;;;;;;18.95;45.64;102725.38;6428431;23;20012;-73
2022/05/08 10:34:33;;;;;;;9.80;3.65;;;;;;;19.05;43.57;102715.56;6429542;23;20080;-74
2022/05/08 10:37:11;;;;;;;11.37;3.83;;;;;;;19.27;42.54;102732.22;6429683;23;20005;-74
2022/05/08 10:39:46;;;;;;;11.27;3.38;;;;;;;19.02;41.67;102718.53;6429050;23;20009;-74
2022/05/08 10:42:24;;;;;;;12.02;3.60;;;;;;;19.19;42.40;102714.31;6427521;23;20005;-72
2022/05/08 10:44:57;;;;;;;13.98;3.60;;;;;;;19.25;43.96;102708.44;6429178;23;20020;-73
2022/05/08 10:47:37;;;;;;;9.57;2.90;;;;;;;19.25;42.14;102707.63;6427890;23;20019;-74
2022/05/08 10:50:11;;;;;;;10.15;3.10;;;;;;;19.34;41.18;102710.25;6428921;23;20012;-72
2022/05/08 10:52:44;;;;;;;12.80;3.42;;;;;;;19.10;41.60;102715.16;6429413;23;20015;-73
2022/05/08 10:55:16;;;;;;;;;;;;;;;19.98;40.63;102702.53;6430007;23;20009;-73
2022/05/08 10:57:49;;;;;;;9.95;3.10;;;;;;;19.31;42.27;102705.19;6428154;23;19908;-73
2022/05/08 11:00:29;;;;;;;11.25;3.47;;;;;;;19.30;41.32;102706.19;6403278;23;20414;-73
2022/05/08 11:03:02;;;;;;;15.55;3.50;;;;;;;19.38;40.80;102703.66;6429270;23;20433;-73
2022/05/08 11:05:38;;;;;;;9.77;3.00;;;;;;;19.59;42.34;102702.66;6428712;23;20009;-72
2022/05/08 11:08:12;;;;;;;8.88;2.72;;;;;;;19.36;40.81;102704.81;6428697;23;20009;-73
2022/05/08 11:10:43;;;;;;;7.97;3.17;;;;;;;19.52;40.50;102704.19;6429112;23;20017;-74
2022/05/08 11:13:19;;;;;;;9.30;3.08;;;;;;;19.73;40.53;102714.66;6428248;23;20055;-73
2022/05/08 11:15:50;;;;;;;9.90;3.08;;;;;;;19.61;39.29;102712.13;6428772;23;20005;-73
2022/05/08 11:18:24;;;;;;;9.60;2.93;;;;;;;19.86;40.26;102699.22;6429333;23;20548;-73
2022/05/08 11:20:57;;;;;;;10.73;2.80;;;;;;;19.65;38.70;102681.66;6428681;23;20001;-72
2022/05/08 11:23:33;;;;;;;11.70;3.65;;;;;;;19.79;41.59;102695.47;6428642;23;20001;-73
2022/05/08 11:26:07;;;;;;;10.63;3.22;;;;;;;19.92;41.14;102690.66;6428627;23;20015;-73
2022/05/08 11:28:53;;;;;;;9.43;2.90;;;;;;;20.33;40.44;102683.16;6428749;23;20527;-73
2022/05/08 11:31:27;;;;;;;8.57;2.80;;;;;;;20.20;39.35;102685.34;6402601;23;20503;-74
2022/05/08 11:36:49;;;;;;;8.80;3.22;;;;;;;20.58;38.93;102687.78;6428834;23;20448;-73
2022/05/08 11:39:21;;;;;;;9.53;3.03;;;;;;;20.61;39.09;102684.00;6428400;23;20009;-72
2022/05/08 11:41:54;;;;;;;8.57;3.10;;;;;;;20.57;36.60;102685.25;6428107;23;20008;-73
2022/05/08 11:44:25;;;;;;;;;;;;;;;21.27;37.64;102688.03;6428988;23;20455;-73
2022/05/08 11:46:57;;;;;;;8.38;2.67;;;;;;;20.69;38.66;102684.06;6427822;23;19908;-73
2022/05/08 11:49:31;;;;;;;7.97;2.80;;;;;;;20.85;38.73;102684.22;6428729;23;20005;-73
2022/05/08 11:52:03;;;;;;;10.13;2.65;;;;;;;20.77;39.08;102680.66;6428547;23;20020;-74
2022/05/08 11:54:37;;;;;;;6.53;2.58;;;;;;;20.73;37.21;102671.28;6428578;23;20009;-74
2022/05/08 11:57:08;;;;;;;12.68;3.70;;;;;;;20.81;38.35;102679.34;6428256;23;20005;-74
2022/05/08 11:59:42;;;;;;;9.90;3.00;;;;;;;20.91;39.39;102672.13;6402881;23;20016;-73
2022/05/08 12:02:15;;;;;;;8.30;2.72;;;;;;;21.00;39.38;102671.19;6428183;23;20028;-73
2022/05/08 12:05:00;;;;;;;10.93;2.88;;;;;;;21.05;37.50;102660.88;6402107;23;20425;-73
2022/05/08 12:07:39;;;;;;;7.45;2.90;;;;;;;21.13;38.36;102662.78;6427326;23;20632;-73
2022/05/08 12:10:10;;;;;;;8.07;3.10;;;;;;;20.79;37.74;102663.50;6428396;23;20053;-72
2022/05/08 12:12:42;;;;;;;10.87;2.77;;;;;;;20.98;37.84;102651.84;6428654;23;20092;-74